createdAt,value
2019-04-03T00:01:04.040Z,44.26
2019-04-03T00:03:34.162Z,43.95
2019-04-03T00:06:05.592Z,44.15
2019-04-03T00:08:36.650Z,43.86
2019-04-03T00:11:08.569Z,44.08
2019-04-03T00:13:37.629Z,44.71
2019-04-03T00:16:07.075Z,44.39
2019-04-03T00:18:36.488Z,44.79
2019-04-03T00:21:05.966Z,44.98
2019-04-03T00:23:35.429Z,44.62
2019-04-03T00:26:05.236Z,44.77
2019-04-03T00:28:34.648Z,44.93
2019-04-03T00:31:04.094Z,45.26
2019-04-03T00:33:33.503Z,44.87
2019-04-03T00:36:02.951Z,45.17
2019-04-03T00:38:32.366Z,45.50
2019-04-03T00:41:01.805Z,45.21
2019-04-03T00:43:31.263Z,45.21
2019-04-03T00:46:00.700Z,45.74
2019-04-03T00:48:30.116Z,45.32
2019-04-03T00:50:59.657Z,45.75
2019-04-03T00:53:29.072Z,45.77
2019-04-03T00:55:59.159Z,45.37
2019-04-03T00:58:41.444Z,45.96
2019-04-03T01:01:11.645Z,46.15
2019-04-03T01:03:41.402Z,46.11
2019-04-03T01:06:11.218Z,46.36
2019-04-03T01:08:40.624Z,45.64
2019-04-03T01:11:10.101Z,46.16
2019-04-03T01:13:40.012Z,46.46
2019-04-03T01:16:09.757Z,46.43
2019-04-03T01:18:39.186Z,46.47
2019-04-03T01:21:08.683Z,46.62
2019-04-03T01:23:38.240Z,46.83
2019-04-03T01:26:09.301Z,46.42
2019-04-03T01:28:41.355Z,46.88
2019-04-03T01:31:10.062Z,46.97
2019-04-03T01:33:39.533Z,47.14
2019-04-03T01:36:08.938Z,47.08
2019-04-03T01:38:38.884Z,47.22
2019-04-03T01:41:08.309Z,47.58
2019-04-03T01:43:38.216Z,47.38
2019-04-03T01:46:07.629Z,47.50
2019-04-03T01:48:37.065Z,47.63
2019-04-03T01:51:06.482Z,47.60
2019-04-03T01:53:35.920Z,47.49
2019-04-03T01:56:05.338Z,47.89
2019-04-03T01:58:36.522Z,47.68
2019-04-03T02:01:07.592Z,48.09
2019-04-03T02:03:37.174Z,47.84
2019-04-03T02:06:06.545Z,47.89
2019-04-03T02:08:35.994Z,47.89
2019-04-03T02:11:05.683Z,47.91
2019-04-03T02:13:35.230Z,48.24
2019-04-03T02:16:04.790Z,47.93
2019-04-03T02:18:34.184Z,48.11
2019-04-03T02:21:05.169Z,48.34
2019-04-03T02:23:34.641Z,48.10
2019-04-03T02:26:04.230Z,48.32
2019-04-03T02:28:34.916Z,48.29
2019-04-03T02:31:04.765Z,48.34
2019-04-03T02:33:34.213Z,48.45
2019-04-03T02:36:03.643Z,48.73
2019-04-03T02:38:33.156Z,48.64
2019-04-03T02:41:03.971Z,48.55
2019-04-03T02:43:34.173Z,48.65
2019-04-03T02:46:03.626Z,48.48
2019-04-03T02:48:37.351Z,48.68
2019-04-03T02:51:04.297Z,48.85
2019-04-03T02:53:33.761Z,48.92
2019-04-03T02:56:03.257Z,48.78
2019-04-03T02:58:32.695Z,49.35
2019-04-03T03:01:05.331Z,49.23
2019-04-03T03:03:33.599Z,49.61
2019-04-03T03:06:02.978Z,49.25
2019-04-03T03:08:32.431Z,49.21
2019-04-03T03:11:02.921Z,49.46
2019-04-03T03:13:34.614Z,49.94
2019-04-03T03:16:04.177Z,49.74
2019-04-03T03:18:33.629Z,50.14
2019-04-03T03:21:03.055Z,50.24
2019-04-03T03:23:32.530Z,50.16
2019-04-03T03:26:04.292Z,50.32
2019-04-03T03:28:33.074Z,49.92
2019-04-03T03:31:05.245Z,50.52
2019-04-03T03:33:37.449Z,50.65
2019-04-03T03:36:05.465Z,50.92
2019-04-03T03:38:38.203Z,51.86
2019-04-03T03:41:06.237Z,51.83
2019-04-03T03:43:38.215Z,52.44
2019-04-03T03:46:06.801Z,52.43
2019-04-03T03:48:36.387Z,52.61
2019-04-03T03:51:05.846Z,52.79
2019-04-03T03:53:35.560Z,53.71
2019-04-03T03:56:05.247Z,53.62
2019-04-03T03:58:34.744Z,53.30
2019-04-03T04:01:04.211Z,53.37
2019-04-03T04:03:33.606Z,52.68
2019-04-03T04:06:03.062Z,52.98
2019-04-03T04:08:32.787Z,53.08
2019-04-03T04:11:02.712Z,53.84
2019-04-03T04:13:32.480Z,53.35
2019-04-03T04:16:03.872Z,53.98
2019-04-03T04:18:33.182Z,54.69
2019-04-03T04:21:02.902Z,54.18
2019-04-03T04:23:32.320Z,54.22
2019-04-03T04:26:02.278Z,54.26
2019-04-03T04:28:31.877Z,54.42
2019-04-03T04:31:01.327Z,54.51
2019-04-03T04:33:30.845Z,54.50
2019-04-03T04:36:00.395Z,54.62
2019-04-03T04:38:29.815Z,54.31
2019-04-03T04:41:01.287Z,54.61
2019-04-03T04:43:30.486Z,54.99
2019-04-03T04:45:59.942Z,54.91
2019-04-03T04:48:29.365Z,55.26
2019-04-03T04:50:58.816Z,55.04
2019-04-03T04:53:29.835Z,55.37
2019-04-03T04:55:59.388Z,55.29
2019-04-03T04:58:28.800Z,55.35
2019-04-03T05:00:58.358Z,55.96
2019-04-03T05:03:27.886Z,55.21
2019-04-03T05:05:58.570Z,55.80
2019-04-03T05:08:33.637Z,54.95
2019-04-03T05:11:03.391Z,55.33
2019-04-03T05:13:32.823Z,54.98
2019-04-03T05:16:02.686Z,55.19
2019-04-03T05:18:32.256Z,54.92
2019-04-03T05:21:01.905Z,55.24
2019-04-03T05:23:31.339Z,54.83
2019-04-03T05:26:01.854Z,54.82
2019-04-03T05:28:33.986Z,53.97
2019-04-03T05:31:02.763Z,53.49
2019-04-03T05:33:32.184Z,53.28
2019-04-03T05:36:01.638Z,53.02
2019-04-03T05:38:31.061Z,52.00
2019-04-03T05:41:00.562Z,52.41
2019-04-03T05:43:30.854Z,52.20
2019-04-03T05:46:01.032Z,51.65
2019-04-03T05:48:30.655Z,51.60
2019-04-03T05:51:00.109Z,51.37
2019-04-03T05:53:29.538Z,51.73
2019-04-03T05:55:58.986Z,51.15
2019-04-03T05:58:28.494Z,50.99
2019-04-03T06:01:05.421Z,50.81
2019-04-03T06:03:39.173Z,50.19
2019-04-03T06:06:00.356Z,50.25
2019-04-03T06:08:29.778Z,50.10
2019-04-03T06:10:59.407Z,50.36
2019-04-03T06:13:28.834Z,49.41
2019-04-03T06:15:58.381Z,49.47
2019-04-03T06:18:30.913Z,49.29
2019-04-03T06:20:59.070Z,48.91
2019-04-03T06:23:28.694Z,48.79
2019-04-03T06:26:01.021Z,48.15
2019-04-03T06:28:29.255Z,47.38
2019-04-03T06:30:58.700Z,48.29
2019-04-03T06:33:31.305Z,47.60
2019-04-03T06:35:59.271Z,47.83
2019-04-03T06:38:29.051Z,47.20
2019-04-03T06:40:58.594Z,47.24
2019-04-03T06:43:29.942Z,46.62
2019-04-03T06:45:59.134Z,46.54
2019-04-03T06:48:28.565Z,46.17
2019-04-03T06:50:58.219Z,46.53
2019-04-03T06:53:28.758Z,45.51
2019-04-03T06:55:58.562Z,46.02
2019-04-03T06:58:37.266Z,45.31
2019-04-03T07:00:59.147Z,45.80
2019-04-03T07:03:28.610Z,45.86
2019-04-03T07:05:58.048Z,45.11
2019-04-03T07:08:32.598Z,44.89
2019-04-03T07:10:58.636Z,44.53
2019-04-03T07:13:29.734Z,44.97
2019-04-03T07:15:59.414Z,44.71
2019-04-03T07:18:29.169Z,43.96
2019-04-03T07:20:58.552Z,43.59
2019-04-03T07:23:29.918Z,43.09
2019-04-03T07:25:59.622Z,42.94
2019-04-03T07:28:30.596Z,43.50
2019-04-03T07:31:00.380Z,42.97
2019-04-03T07:33:29.847Z,42.69
2019-04-03T07:35:59.282Z,42.48
2019-04-03T07:38:28.929Z,41.91
2019-04-03T07:40:58.326Z,42.78
2019-04-03T07:43:28.231Z,42.10
2019-04-03T07:45:57.688Z,41.55
2019-04-03T07:48:27.323Z,41.79
2019-04-03T07:50:56.740Z,41.08
2019-04-03T07:53:26.190Z,40.84
2019-04-03T07:55:55.983Z,40.67
2019-04-03T07:58:25.825Z,40.87
2019-04-03T08:00:55.486Z,39.35
2019-04-03T08:03:24.900Z,39.31
2019-04-03T08:05:56.265Z,39.63
2019-04-03T08:08:25.768Z,40.40
2019-04-03T08:10:55.287Z,38.89
2019-04-03T08:13:24.743Z,38.84
2019-04-03T08:15:54.157Z,39.50
2019-04-03T08:18:23.608Z,39.17
2019-04-03T08:20:53.358Z,38.44
2019-04-03T08:23:22.852Z,39.06
2019-04-03T08:25:54.264Z,38.25
2019-04-03T08:28:26.012Z,37.83
2019-04-03T08:30:54.642Z,37.63
2019-04-03T08:33:27.332Z,37.27
2019-04-03T08:35:55.303Z,37.26
2019-04-03T08:38:24.983Z,36.96
2019-04-03T08:40:54.850Z,36.80
2019-04-03T08:43:24.459Z,36.90
2019-04-03T08:45:54.027Z,36.28
2019-04-03T08:48:23.523Z,35.74
2019-04-03T08:50:52.941Z,35.75
2019-04-03T08:53:22.389Z,35.31
2019-04-03T08:55:51.942Z,35.71
2019-04-03T08:58:22.135Z,35.25
2019-04-03T09:00:52.619Z,34.81
2019-04-03T09:03:22.037Z,35.63
2019-04-03T09:05:52.354Z,35.09
2019-04-03T09:08:22.814Z,34.82
2019-04-03T09:10:52.509Z,35.35
2019-04-03T09:13:23.242Z,35.02
2019-04-03T09:15:53.298Z,35.34
2019-04-03T09:18:22.817Z,34.60
2019-04-03T09:20:52.373Z,34.89
2019-04-03T09:23:24.634Z,34.77
2019-04-03T09:25:52.968Z,34.10
2019-04-03T09:28:22.862Z,33.43
2019-04-03T09:30:54.099Z,33.07
2019-04-03T09:33:25.527Z,33.14
2019-04-03T09:35:54.815Z,33.41
2019-04-03T09:38:24.239Z,33.53
2019-04-03T09:40:53.874Z,33.99
2019-04-03T09:43:23.291Z,33.90
2019-04-03T09:45:52.842Z,33.69
2019-04-03T09:48:22.950Z,34.04
2019-04-03T09:50:52.399Z,34.13
2019-04-03T09:53:21.830Z,33.23
2019-04-03T09:55:51.278Z,33.39
2019-04-03T09:58:20.702Z,32.65
2019-04-03T10:00:50.153Z,32.53
2019-04-03T10:03:22.486Z,32.33
2019-04-03T10:05:50.829Z,32.27
2019-04-03T10:08:20.211Z,32.20
2019-04-03T10:10:50.040Z,31.89
2019-04-03T10:13:19.562Z,30.77
2019-04-03T10:15:49.238Z,31.24
2019-04-03T10:18:22.001Z,29.98
2019-04-03T10:20:50.868Z,30.12
2019-04-03T10:23:20.303Z,30.20
2019-04-03T10:25:52.530Z,29.92
2019-04-03T10:28:21.115Z,29.49
2019-04-03T10:30:52.825Z,30.31
2019-04-03T10:33:21.635Z,30.88
2019-04-03T10:35:51.486Z,30.66
2019-04-03T10:38:20.898Z,29.52
2019-04-03T10:40:50.452Z,30.16
2019-04-03T10:43:19.917Z,28.94
2019-04-03T10:45:49.459Z,28.14
2019-04-03T10:48:19.103Z,28.26
2019-04-03T10:50:48.678Z,28.16
2019-04-03T10:53:20.031Z,27.92
2019-04-03T10:55:49.261Z,28.32
2019-04-03T10:58:18.900Z,28.18
2019-04-03T11:00:49.428Z,28.61
2019-04-03T11:03:20.620Z,29.29
2019-04-03T11:05:50.029Z,29.77
2019-04-03T11:08:19.483Z,29.93
2019-04-03T11:10:49.358Z,30.55
2019-04-03T11:13:19.137Z,29.10
2019-04-03T11:15:48.952Z,28.79
2019-04-03T11:18:18.882Z,29.13
2019-04-03T11:20:49.872Z,29.29
2019-04-03T11:23:21.630Z,29.48
2019-04-03T11:25:50.420Z,28.73
2019-04-03T11:28:19.935Z,27.86
2019-04-03T11:30:52.120Z,27.99
2019-04-03T11:33:20.518Z,28.83
2019-04-03T11:35:52.290Z,28.54
2019-04-03T11:38:27.189Z,28.38
2019-04-03T11:40:52.768Z,27.26
2019-04-03T11:43:22.266Z,27.18
2019-04-03T11:45:51.748Z,27.36
2019-04-03T11:48:21.274Z,27.43
2019-04-03T11:50:51.164Z,28.38
2019-04-03T11:53:20.617Z,29.02
2019-04-03T11:55:50.076Z,28.21
2019-04-03T11:58:21.106Z,27.88
2019-04-03T12:00:52.632Z,27.08
2019-04-03T12:03:22.154Z,27.05
2019-04-03T12:05:51.611Z,26.64
2019-04-03T12:08:21.183Z,26.35
2019-04-03T12:10:50.676Z,26.50
2019-04-03T12:13:21.805Z,25.77
2019-04-03T12:15:53.205Z,26.60
2019-04-03T12:18:26.200Z,26.55
2019-04-03T12:20:55.777Z,27.65
2019-04-03T12:23:26.911Z,27.76
2019-04-03T12:25:56.976Z,27.41
2019-04-03T12:28:26.455Z,26.56
2019-04-03T12:30:57.080Z,27.29
2019-04-03T12:33:26.897Z,26.90
2019-04-03T12:35:56.529Z,26.98
2019-04-03T12:38:26.173Z,27.18
2019-04-03T12:40:55.871Z,25.75
2019-04-03T12:43:25.321Z,25.06
2019-04-03T12:45:57.387Z,24.17
2019-04-03T12:48:27.894Z,24.11
2019-04-03T12:50:59.717Z,24.83
2019-04-03T12:53:28.460Z,24.82
2019-04-03T12:55:58.434Z,25.34
2019-04-03T12:58:28.203Z,24.53
2019-04-03T13:00:58.104Z,24.34
2019-04-03T13:03:27.883Z,24.74
2019-04-03T13:05:58.745Z,24.41
2019-04-03T13:08:28.357Z,24.66
2019-04-03T13:10:58.132Z,24.24
2019-04-03T13:13:28.827Z,24.36
2019-04-03T13:15:58.331Z,24.49
2019-04-03T13:18:27.918Z,24.40
2019-04-03T13:20:57.349Z,25.61
2019-04-03T13:23:26.832Z,25.92
2019-04-03T13:25:56.344Z,26.20
2019-04-03T13:28:25.929Z,26.56
2019-04-03T13:30:55.293Z,26.27
2019-04-03T13:33:24.846Z,26.38
2019-04-03T13:35:54.255Z,27.12
2019-04-03T13:38:23.915Z,27.94
2019-04-03T13:40:53.405Z,27.05
2019-04-03T13:43:22.858Z,27.13
2019-04-03T13:45:52.345Z,27.06
2019-04-03T13:48:21.832Z,26.69
2019-04-03T13:50:53.541Z,26.41
2019-04-03T13:53:25.086Z,25.52
2019-04-03T13:55:53.485Z,24.75
2019-04-03T13:58:23.321Z,24.15
2019-04-03T14:01:01.382Z,24.03
2019-04-03T14:03:24.671Z,24.59
2019-04-03T14:05:54.414Z,25.88
2019-04-03T14:08:23.901Z,25.96
2019-04-03T14:10:53.308Z,27.12
2019-04-03T14:13:22.846Z,27.07
2019-04-03T14:15:54.756Z,27.21
2019-04-03T14:18:23.789Z,27.84
2019-04-03T14:20:54.023Z,28.40
2019-04-03T14:23:24.797Z,28.22
2019-04-03T14:26:04.793Z,28.13
2019-04-03T14:28:25.548Z,28.05
2019-04-03T14:30:55.071Z,28.07
2019-04-03T14:33:25.544Z,28.33
2019-04-03T14:35:55.719Z,28.87
2019-04-03T14:38:27.630Z,29.00
2019-04-03T14:40:56.308Z,28.66
2019-04-03T14:43:25.715Z,28.80
2019-04-03T14:45:55.170Z,28.46
2019-04-03T14:48:26.194Z,28.26
2019-04-03T14:50:55.728Z,29.01
2019-04-03T14:53:25.837Z,28.88
2019-04-03T14:55:55.347Z,28.98
2019-04-03T14:58:26.851Z,29.63
2019-04-03T15:00:56.428Z,28.87
2019-04-03T15:03:27.820Z,28.38
2019-04-03T15:05:57.028Z,28.25
2019-04-03T15:08:26.456Z,28.25
2019-04-03T15:10:55.905Z,28.11
2019-04-03T15:13:25.438Z,27.70
2019-04-03T15:15:57.205Z,28.24
2019-04-03T15:18:26.420Z,28.66
2019-04-03T15:20:55.966Z,29.34
2019-04-03T15:23:25.384Z,29.81
2019-04-03T15:25:54.934Z,29.82
2019-04-03T15:28:24.452Z,29.65
2019-04-03T15:30:53.892Z,30.02
2019-04-03T15:33:24.759Z,29.46
2019-04-03T15:35:54.442Z,30.32
2019-04-03T15:38:23.861Z,30.49
2019-04-03T15:40:53.351Z,30.75
2019-04-03T15:43:22.732Z,30.31
2019-04-03T15:45:52.315Z,30.19
2019-04-03T15:48:22.853Z,30.91
2019-04-03T15:50:53.294Z,30.55
2019-04-03T15:53:24.219Z,30.73
2019-04-03T15:55:53.848Z,30.68
2019-04-03T15:58:25.694Z,31.08
2019-04-03T16:00:54.399Z,31.49
2019-04-03T16:03:24.019Z,31.69
2019-04-03T16:05:53.466Z,31.69
2019-04-03T16:08:23.313Z,31.42
2019-04-03T16:10:54.038Z,32.36
2019-04-03T16:13:24.308Z,31.85
2019-04-03T16:15:56.323Z,31.82
2019-04-03T16:18:25.086Z,32.09
2019-04-03T16:20:54.979Z,32.15
2019-04-03T16:23:24.432Z,32.33
2019-04-03T16:25:53.883Z,32.88
2019-04-03T16:28:23.329Z,32.80
2019-04-03T16:30:54.401Z,32.56
2019-04-03T16:33:24.901Z,32.87
2019-04-03T16:35:54.667Z,33.84
2019-04-03T16:38:27.677Z,33.76
2019-04-03T16:40:55.529Z,33.70
2019-04-03T16:43:25.034Z,34.13
2019-04-03T16:45:54.827Z,34.35
2019-04-03T16:48:24.484Z,34.32
2019-04-03T16:50:54.437Z,34.48
2019-04-03T16:53:23.908Z,34.35
2019-04-03T16:55:53.933Z,35.08
2019-04-03T16:58:25.255Z,34.95
2019-04-03T17:00:55.045Z,35.07
2019-04-03T17:03:26.634Z,35.29
2019-04-03T17:05:55.621Z,35.43
2019-04-03T17:08:25.975Z,35.72
2019-04-03T17:10:56.256Z,36.13
2019-04-03T17:13:25.679Z,35.92
2019-04-03T17:15:55.145Z,36.33
2019-04-03T17:18:24.552Z,35.80
2019-04-03T17:20:56.339Z,36.16
2019-04-03T17:23:25.595Z,36.59
2019-04-03T17:25:55.214Z,36.23
2019-04-03T17:28:26.423Z,36.59
2019-04-03T17:30:55.780Z,37.08
2019-04-03T17:33:25.222Z,37.21
2019-04-03T17:35:54.741Z,37.61
2019-04-03T17:38:24.190Z,37.77
2019-04-03T17:40:53.713Z,37.50
2019-04-03T17:43:23.164Z,37.83
2019-04-03T17:45:52.580Z,37.91
2019-04-03T17:48:22.842Z,37.65
2019-04-03T17:50:53.146Z,37.67
2019-04-03T17:53:22.661Z,38.30
2019-04-03T17:55:52.095Z,38.23
2019-04-03T17:58:21.654Z,38.31
2019-04-03T18:00:52.078Z,38.50
2019-04-03T18:03:21.998Z,38.53
2019-04-03T18:05:51.426Z,38.63
2019-04-03T18:08:21.150Z,38.74
2019-04-03T18:10:50.574Z,38.92
2019-04-03T18:13:20.022Z,38.75
2019-04-03T18:15:49.979Z,39.14
2019-04-03T18:18:19.698Z,38.92
2019-04-03T18:20:49.117Z,38.92
2019-04-03T18:23:21.402Z,39.23
2019-04-03T18:25:50.300Z,39.24
2019-04-03T18:28:21.035Z,39.60
2019-04-03T18:30:50.642Z,39.34
2019-04-03T18:33:20.109Z,39.74
2019-04-03T18:35:49.921Z,39.69
2019-04-03T18:38:19.364Z,39.67
2019-04-03T18:40:50.005Z,39.63
2019-04-03T18:43:21.645Z,40.28
2019-04-03T18:45:50.566Z,39.78
2019-04-03T18:48:20.109Z,39.53
2019-04-03T18:50:50.016Z,39.83
2019-04-03T18:53:19.461Z,39.87
2019-04-03T18:55:48.885Z,39.69
2019-04-03T18:58:18.325Z,40.16
2019-04-03T19:00:47.754Z,39.51
2019-04-03T19:03:17.455Z,40.28
2019-04-03T19:05:47.279Z,39.68
2019-04-03T19:08:18.214Z,40.12
2019-04-03T19:10:47.965Z,40.30
2019-04-03T19:13:17.493Z,40.13
2019-04-03T19:15:46.955Z,40.12
2019-04-03T19:18:19.835Z,40.28
2019-04-03T19:20:47.699Z,40.36
2019-04-03T19:23:17.340Z,40.48
2019-04-03T19:25:46.915Z,40.09
2019-04-03T19:28:16.482Z,40.64
2019-04-03T19:30:46.064Z,40.54
2019-04-03T19:33:16.007Z,40.31
2019-04-03T19:35:45.448Z,40.59
2019-04-03T19:38:15.010Z,40.48
2019-04-03T19:40:44.806Z,40.43
2019-04-03T19:43:15.403Z,40.99
2019-04-03T19:45:45.188Z,40.89
2019-04-03T19:48:14.658Z,41.30
2019-04-03T19:50:44.077Z,41.47
2019-04-03T19:53:14.117Z,41.40
2019-04-03T19:55:43.569Z,41.27
2019-04-03T19:58:13.130Z,41.77
2019-04-03T20:00:42.713Z,41.20
2019-04-03T20:03:14.213Z,41.99
2019-04-03T20:05:44.038Z,41.88
2019-04-03T20:08:13.577Z,41.67
2019-04-03T20:10:43.030Z,42.15
2019-04-03T20:13:12.450Z,42.25
2019-04-03T20:15:42.009Z,42.07
2019-04-03T20:18:11.531Z,42.01
2019-04-03T20:20:40.997Z,42.29
2019-04-03T20:23:11.218Z,42.40
2019-04-03T20:25:40.726Z,42.45
2019-04-03T20:28:10.401Z,42.42
2019-04-03T20:30:39.960Z,42.59
2019-04-03T20:33:11.398Z,42.86
2019-04-03T20:35:40.529Z,43.25
2019-04-03T20:38:09.960Z,43.15
2019-04-03T20:40:39.937Z,43.46
2019-04-03T20:43:11.828Z,43.55
2019-04-03T20:45:40.848Z,43.29
2019-04-03T20:48:10.366Z,43.53
2019-04-03T20:50:39.813Z,43.48
2019-04-03T20:53:09.333Z,43.50
2019-04-03T20:55:38.788Z,43.49
2019-04-03T20:58:08.410Z,44.08
2019-04-03T21:00:38.000Z,43.97
2019-04-03T21:03:07.516Z,44.07
2019-04-03T21:05:36.969Z,44.65
2019-04-03T21:08:06.397Z,44.37
2019-04-03T21:10:35.846Z,44.27
2019-04-03T21:13:06.820Z,44.00
2019-04-03T21:15:36.414Z,44.79
2019-04-03T21:18:05.829Z,44.28
2019-04-03T21:20:35.501Z,44.68
2019-04-03T21:23:04.923Z,44.77
2019-04-03T21:25:35.948Z,44.49
2019-04-03T21:28:06.014Z,44.76
2019-04-03T21:30:35.458Z,44.83
2019-04-03T21:33:04.876Z,44.92
2019-04-03T21:35:35.153Z,45.18
2019-04-03T21:38:05.278Z,45.21
2019-04-03T21:40:34.742Z,45.50
2019-04-03T21:43:04.169Z,45.31
2019-04-03T21:45:33.613Z,45.57
2019-04-03T21:48:03.029Z,45.89
2019-04-03T21:50:32.487Z,45.74
2019-04-03T21:53:02.000Z,45.57
2019-04-03T21:55:34.444Z,45.59
2019-04-03T21:58:02.753Z,45.96
2019-04-03T22:01:00.685Z,45.87
2019-04-03T22:03:30.209Z,46.31
2019-04-03T22:05:59.667Z,46.54
2019-04-03T22:08:29.548Z,46.04
2019-04-03T22:10:59.286Z,46.68
2019-04-03T22:13:46.604Z,46.85
2019-04-03T22:16:16.338Z,46.93
2019-04-03T22:18:45.760Z,46.99
2019-04-03T22:21:15.307Z,47.05
2019-04-03T22:23:44.826Z,46.64
2019-04-03T22:26:14.487Z,47.38
2019-04-03T22:28:45.891Z,47.47
2019-04-03T22:31:15.080Z,47.64
2019-04-03T22:33:44.504Z,47.46
2019-04-03T22:36:13.948Z,47.74
2019-04-03T22:38:43.372Z,48.25
2019-04-03T22:41:12.928Z,47.95
2019-04-03T22:43:44.146Z,48.08
2019-04-03T22:46:13.876Z,48.14
2019-04-03T22:48:43.300Z,48.13
2019-04-03T22:51:12.849Z,48.25
2019-04-03T22:53:42.369Z,48.37
2019-04-03T22:56:11.821Z,48.51
2019-04-03T22:58:41.349Z,48.52
2019-04-03T23:01:10.796Z,48.83
2019-04-03T23:03:40.319Z,48.65
2019-04-03T23:06:09.862Z,49.09
2019-04-03T23:08:39.378Z,49.08
2019-04-03T23:11:08.919Z,49.58
2019-04-03T23:13:38.536Z,49.24
2019-04-03T23:16:09.633Z,49.72
2019-04-03T23:18:39.325Z,49.75
2019-04-03T23:21:08.844Z,49.73
2019-04-03T23:23:38.388Z,49.45
2019-04-03T23:26:07.834Z,50.24
2019-04-03T23:28:37.452Z,50.00
2019-04-03T23:31:06.866Z,50.10
2019-04-03T23:33:36.423Z,50.37
2019-04-03T23:36:05.941Z,50.40
2019-04-03T23:38:35.403Z,50.05
2019-04-03T23:41:06.129Z,49.99
2019-04-03T23:43:39.358Z,50.34
2019-04-03T23:46:07.512Z,50.41
2019-04-03T23:48:36.955Z,50.45
2019-04-03T23:51:06.469Z,50.64
2019-04-03T23:53:35.916Z,50.25
2019-04-03T23:56:05.519Z,50.67
2019-04-03T23:58:36.576Z,50.41
